sensor_id;sensor_type;location;lat;lon;timestamp;P1;durP1;ratioP1;P2;durP2;ratioP2
23718;SDS011;43322;52.230;5.702;2024-02-23T00:00:52;1.30;;;0.77;;
23718;SDS011;43322;52.230;5.702;2024-02-23T00:03:19;2.08;;;0.90;;
23718;SDS011;43322;52.230;5.702;2024-02-23T00:05:46;1.25;;;1.15;;
23718;SDS011;43322;52.230;5.702;2024-02-23T00:08:13;3.25;;;1.13;;
23718;SDS011;43322;52.230;5.702;2024-02-23T00:10:40;3.22;;;0.98;;
23718;SDS011;43322;52.230;5.702;2024-02-23T00:13:07;4.55;;;1.40;;
23718;SDS011;43322;52.230;5.702;2024-02-23T00:15:35;5.47;;;1.10;;
23718;SDS011;43322;52.230;5.702;2024-02-23T00:18:02;2.88;;;1.10;;
23718;SDS011;43322;52.230;5.702;2024-02-23T00:20:29;7.72;;;1.58;;
23718;SDS011;43322;52.230;5.702;2024-02-23T00:22:56;4.25;;;1.25;;
23718;SDS011;43322;52.230;5.702;2024-02-23T00:25:23;2.40;;;1.00;;
23718;SDS011;43322;52.230;5.702;2024-02-23T00:27:50;5.20;;;1.40;;
23718;SDS011;43322;52.230;5.702;2024-02-23T00:30:17;5.95;;;1.63;;
23718;SDS011;43322;52.230;5.702;2024-02-23T00:32:45;4.95;;;1.98;;
23718;SDS011;43322;52.230;5.702;2024-02-23T00:35:12;9.85;;;1.58;;
23718;SDS011;43322;52.230;5.702;2024-02-23T00:37:38;7.80;;;1.40;;
23718;SDS011;43322;52.230;5.702;2024-02-23T00:40:06;4.57;;;1.60;;
23718;SDS011;43322;52.230;5.702;2024-02-23T00:42:34;6.63;;;1.90;;
23718;SDS011;43322;52.230;5.702;2024-02-23T00:45:01;7.75;;;2.05;;
23718;SDS011;43322;52.230;5.702;2024-02-23T00:47:29;9.43;;;1.95;;
23718;SDS011;43322;52.230;5.702;2024-02-23T00:49:57;5.90;;;2.05;;
23718;SDS011;43322;52.230;5.702;2024-02-23T00:52:23;6.70;;;2.00;;
23718;SDS011;43322;52.230;5.702;2024-02-23T00:54:50;9.82;;;2.10;;
23718;SDS011;43322;52.230;5.702;2024-02-23T00:57:17;8.98;;;2.30;;
23718;SDS011;43322;52.230;5.702;2024-02-23T00:59:51;7.72;;;2.20;;
23718;SDS011;43322;52.230;5.702;2024-02-23T01:02:17;13.13;;;2.38;;
23718;SDS011;43322;52.230;5.702;2024-02-23T01:04:44;12.07;;;2.55;;
23718;SDS011;43322;52.230;5.702;2024-02-23T01:07:12;9.20;;;2.28;;
23718;SDS011;43322;52.230;5.702;2024-02-23T01:09:39;12.70;;;2.22;;
23718;SDS011;43322;52.230;5.702;2024-02-23T01:12:06;7.72;;;2.25;;
23718;SDS011;43322;52.230;5.702;2024-02-23T01:14:34;12.48;;;2.50;;
23718;SDS011;43322;52.230;5.702;2024-02-23T01:17:00;12.43;;;3.22;;
23718;SDS011;43322;52.230;5.702;2024-02-23T01:19:27;11.05;;;2.88;;
23718;SDS011;43322;52.230;5.702;2024-02-23T01:21:54;7.43;;;2.55;;
23718;SDS011;43322;52.230;5.702;2024-02-23T01:24:26;9.40;;;3.00;;
23718;SDS011;43322;52.230;5.702;2024-02-23T01:26:54;7.97;;;2.20;;
23718;SDS011;43322;52.230;5.702;2024-02-23T01:29:21;9.10;;;2.20;;
23718;SDS011;43322;52.230;5.702;2024-02-23T01:31:48;10.25;;;2.40;;
23718;SDS011;43322;52.230;5.702;2024-02-23T01:34:15;8.90;;;2.40;;
23718;SDS011;43322;52.230;5.702;2024-02-23T01:36:42;10.00;;;2.10;;
23718;SDS011;43322;52.230;5.702;2024-02-23T01:39:09;5.80;;;1.45;;
23718;SDS011;43322;52.230;5.702;2024-02-23T01:41:37;7.20;;;1.27;;
23718;SDS011;43322;52.230;5.702;2024-02-23T01:44:04;4.13;;;1.10;;
23718;SDS011;43322;52.230;5.702;2024-02-23T01:46:31;5.82;;;1.58;;
23718;SDS011;43322;52.230;5.702;2024-02-23T01:48:59;6.80;;;1.30;;
23718;SDS011;43322;52.230;5.702;2024-02-23T01:51:26;3.95;;;1.27;;
23718;SDS011;43322;52.230;5.702;2024-02-23T01:53:52;6.82;;;1.90;;
23718;SDS011;43322;52.230;5.702;2024-02-23T01:56:19;5.63;;;1.50;;
23718;SDS011;43322;52.230;5.702;2024-02-23T01:58:48;8.02;;;1.50;;
23718;SDS011;43322;52.230;5.702;2024-02-23T02:01:15;4.32;;;1.80;;
23718;SDS011;43322;52.230;5.702;2024-02-23T02:03:42;5.13;;;1.65;;
23718;SDS011;43322;52.230;5.702;2024-02-23T02:06:09;4.38;;;1.90;;
23718;SDS011;43322;52.230;5.702;2024-02-23T02:08:37;7.45;;;2.70;;
23718;SDS011;43322;52.230;5.702;2024-02-23T02:11:04;9.45;;;2.47;;
23718;SDS011;43322;52.230;5.702;2024-02-23T02:13:31;8.90;;;2.25;;
23718;SDS011;43322;52.230;5.702;2024-02-23T02:16:00;8.73;;;2.80;;
23718;SDS011;43322;52.230;5.702;2024-02-23T02:18:27;10.23;;;3.17;;
23718;SDS011;43322;52.230;5.702;2024-02-23T02:20:55;8.50;;;2.70;;
23718;SDS011;43322;52.230;5.702;2024-02-23T02:23:22;11.10;;;2.90;;
23718;SDS011;43322;52.230;5.702;2024-02-23T02:25:54;7.50;;;3.30;;
23718;SDS011;43322;52.230;5.702;2024-02-23T02:28:21;6.10;;;2.72;;
23718;SDS011;43322;52.230;5.702;2024-02-23T02:30:48;6.35;;;2.58;;
23718;SDS011;43322;52.230;5.702;2024-02-23T02:33:16;7.90;;;2.80;;
23718;SDS011;43322;52.230;5.702;2024-02-23T02:35:43;9.00;;;2.67;;
23718;SDS011;43322;52.230;5.702;2024-02-23T02:38:10;6.50;;;2.75;;
23718;SDS011;43322;52.230;5.702;2024-02-23T02:40:37;8.98;;;3.20;;
23718;SDS011;43322;52.230;5.702;2024-02-23T02:43:04;9.73;;;2.92;;
23718;SDS011;43322;52.230;5.702;2024-02-23T02:45:31;9.60;;;3.53;;
23718;SDS011;43322;52.230;5.702;2024-02-23T02:47:59;9.65;;;2.80;;
23718;SDS011;43322;52.230;5.702;2024-02-23T02:50:27;6.47;;;2.67;;
23718;SDS011;43322;52.230;5.702;2024-02-23T02:52:54;7.07;;;2.58;;
23718;SDS011;43322;52.230;5.702;2024-02-23T02:55:21;7.25;;;3.08;;
23718;SDS011;43322;52.230;5.702;2024-02-23T02:57:48;8.50;;;2.70;;
23718;SDS011;43322;52.230;5.702;2024-02-23T03:00:15;9.25;;;3.33;;
23718;SDS011;43322;52.230;5.702;2024-02-23T03:02:42;9.00;;;3.40;;
23718;SDS011;43322;52.230;5.702;2024-02-23T03:05:09;7.90;;;3.17;;
23718;SDS011;43322;52.230;5.702;2024-02-23T03:07:37;13.50;;;3.67;;
23718;SDS011;43322;52.230;5.702;2024-02-23T03:10:04;9.43;;;3.40;;
23718;SDS011;43322;52.230;5.702;2024-02-23T03:12:32;9.75;;;3.00;;
23718;SDS011;43322;52.230;5.702;2024-02-23T03:14:59;7.85;;;2.90;;
23718;SDS011;43322;52.230;5.702;2024-02-23T03:17:27;13.05;;;3.00;;
23718;SDS011;43322;52.230;5.702;2024-02-23T03:19:54;11.95;;;3.08;;
23718;SDS011;43322;52.230;5.702;2024-02-23T03:22:20;9.02;;;2.72;;
23718;SDS011;43322;52.230;5.702;2024-02-23T03:24:49;13.50;;;2.60;;
23718;SDS011;43322;52.230;5.702;2024-02-23T03:27:15;8.20;;;2.60;;
23718;SDS011;43322;52.230;5.702;2024-02-23T03:29:42;9.35;;;2.50;;
23718;SDS011;43322;52.230;5.702;2024-02-23T03:32:09;6.15;;;2.38;;
23718;SDS011;43322;52.230;5.702;2024-02-23T03:34:36;10.07;;;3.22;;
23718;SDS011;43322;52.230;5.702;2024-02-23T03:37:03;8.65;;;2.42;;
23718;SDS011;43322;52.230;5.702;2024-02-23T03:39:30;6.85;;;2.40;;
23718;SDS011;43322;52.230;5.702;2024-02-23T03:41:59;5.30;;;2.50;;
23718;SDS011;43322;52.230;5.702;2024-02-23T03:44:25;5.45;;;2.08;;
23718;SDS011;43322;52.230;5.702;2024-02-23T03:46:52;9.30;;;3.05;;
23718;SDS011;43322;52.230;5.702;2024-02-23T03:49:19;5.35;;;2.88;;
23718;SDS011;43322;52.230;5.702;2024-02-23T03:51:46;7.88;;;2.50;;
23718;SDS011;43322;52.230;5.702;2024-02-23T03:54:13;5.57;;;2.13;;
23718;SDS011;43322;52.230;5.702;2024-02-23T03:56:41;7.10;;;2.42;;
23718;SDS011;43322;52.230;5.702;2024-02-23T03:59:09;9.27;;;3.05;;
23718;SDS011;43322;52.230;5.702;2024-02-23T04:01:36;6.88;;;2.58;;
23718;SDS011;43322;52.230;5.702;2024-02-23T04:04:04;5.13;;;2.55;;
23718;SDS011;43322;52.230;5.702;2024-02-23T04:06:31;7.65;;;2.60;;
23718;SDS011;43322;52.230;5.702;2024-02-23T04:08:58;10.73;;;2.88;;
23718;SDS011;43322;52.230;5.702;2024-02-23T04:11:25;6.32;;;2.28;;
23718;SDS011;43322;52.230;5.702;2024-02-23T04:13:52;6.47;;;2.42;;
23718;SDS011;43322;52.230;5.702;2024-02-23T04:16:23;5.32;;;2.15;;
23718;SDS011;43322;52.230;5.702;2024-02-23T04:18:50;5.05;;;2.42;;
23718;SDS011;43322;52.230;5.702;2024-02-23T04:21:17;7.65;;;2.50;;
23718;SDS011;43322;52.230;5.702;2024-02-23T04:23:44;9.32;;;2.75;;
23718;SDS011;43322;52.230;5.702;2024-02-23T04:26:11;6.60;;;2.97;;
23718;SDS011;43322;52.230;5.702;2024-02-23T04:28:39;10.43;;;2.75;;
23718;SDS011;43322;52.230;5.702;2024-02-23T04:31:07;8.30;;;3.25;;
23718;SDS011;43322;52.230;5.702;2024-02-23T04:33:36;5.70;;;2.67;;
23718;SDS011;43322;52.230;5.702;2024-02-23T04:36:04;10.48;;;3.08;;
23718;SDS011;43322;52.230;5.702;2024-02-23T04:38:31;7.18;;;2.97;;
23718;SDS011;43322;52.230;5.702;2024-02-23T04:41:01;3.10;;;2.35;;
23718;SDS011;43322;52.230;5.702;2024-02-23T04:43:29;8.27;;;3.20;;
23718;SDS011;43322;52.230;5.702;2024-02-23T04:45:56;13.70;;;3.28;;
23718;SDS011;43322;52.230;5.702;2024-02-23T04:48:23;7.88;;;3.80;;
23718;SDS011;43322;52.230;5.702;2024-02-23T04:50:51;13.52;;;3.22;;
23718;SDS011;43322;52.230;5.702;2024-02-23T04:53:18;8.35;;;3.17;;
23718;SDS011;43322;52.230;5.702;2024-02-23T04:55:45;10.13;;;3.25;;
23718;SDS011;43322;52.230;5.702;2024-02-23T04:58:12;9.15;;;3.08;;
23718;SDS011;43322;52.230;5.702;2024-02-23T05:00:39;10.45;;;3.17;;
23718;SDS011;43322;52.230;5.702;2024-02-23T05:03:05;6.55;;;3.42;;
23718;SDS011;43322;52.230;5.702;2024-02-23T05:05:32;7.22;;;3.03;;
23718;SDS011;43322;52.230;5.702;2024-02-23T05:08:00;3.67;;;2.58;;
23718;SDS011;43322;52.230;5.702;2024-02-23T05:10:27;12.32;;;3.70;;
23718;SDS011;43322;52.230;5.702;2024-02-23T05:12:54;10.10;;;3.80;;
23718;SDS011;43322;52.230;5.702;2024-02-23T05:15:21;4.53;;;3.92;;
23718;SDS011;43322;52.230;5.702;2024-02-23T05:17:48;8.45;;;3.45;;
23718;SDS011;43322;52.230;5.702;2024-02-23T05:20:14;14.32;;;4.22;;
23718;SDS011;43322;52.230;5.702;2024-02-23T05:22:41;6.97;;;3.75;;
23718;SDS011;43322;52.230;5.702;2024-02-23T05:25:10;5.63;;;3.30;;
23718;SDS011;43322;52.230;5.702;2024-02-23T05:27:37;11.32;;;4.00;;
23718;SDS011;43322;52.230;5.702;2024-02-23T05:30:04;12.93;;;3.92;;
23718;SDS011;43322;52.230;5.702;2024-02-23T05:32:31;10.52;;;3.90;;
23718;SDS011;43322;52.230;5.702;2024-02-23T05:34:58;8.50;;;3.50;;
23718;SDS011;43322;52.230;5.702;2024-02-23T05:37:25;7.43;;;3.67;;
23718;SDS011;43322;52.230;5.702;2024-02-23T05:39:52;14.20;;;3.85;;
23718;SDS011;43322;52.230;5.702;2024-02-23T05:42:21;7.28;;;3.65;;
23718;SDS011;43322;52.230;5.702;2024-02-23T05:44:48;14.43;;;3.75;;
23718;SDS011;43322;52.230;5.702;2024-02-23T05:47:14;7.90;;;3.75;;
23718;SDS011;43322;52.230;5.702;2024-02-23T05:49:41;9.60;;;3.95;;
23718;SDS011;43322;52.230;5.702;2024-02-23T05:52:08;10.38;;;4.15;;
23718;SDS011;43322;52.230;5.702;2024-02-23T05:54:35;8.73;;;4.03;;
23718;SDS011;43322;52.230;5.702;2024-02-23T05:57:02;7.13;;;4.15;;
23718;SDS011;43322;52.230;5.702;2024-02-23T05:59:31;11.07;;;4.10;;
23718;SDS011;43322;52.230;5.702;2024-02-23T06:01:58;8.50;;;4.10;;
23718;SDS011;43322;52.230;5.702;2024-02-23T06:04:24;13.50;;;3.97;;
23718;SDS011;43322;52.230;5.702;2024-02-23T06:06:52;6.40;;;3.72;;
23718;SDS011;43322;52.230;5.702;2024-02-23T06:09:19;13.27;;;3.90;;
23718;SDS011;43322;52.230;5.702;2024-02-23T06:11:45;6.75;;;3.00;;
23718;SDS011;43322;52.230;5.702;2024-02-23T06:14:12;6.75;;;3.58;;
23718;SDS011;43322;52.230;5.702;2024-02-23T06:16:41;5.70;;;3.55;;
23718;SDS011;43322;52.230;5.702;2024-02-23T06:19:08;9.13;;;3.60;;
23718;SDS011;43322;52.230;5.702;2024-02-23T06:21:35;6.82;;;2.95;;
23718;SDS011;43322;52.230;5.702;2024-02-23T06:24:01;4.57;;;2.92;;
23718;SDS011;43322;52.230;5.702;2024-02-23T06:26:29;8.52;;;3.10;;
23718;SDS011;43322;52.230;5.702;2024-02-23T06:28:56;7.55;;;2.90;;
23718;SDS011;43322;52.230;5.702;2024-02-23T06:31:23;6.72;;;3.28;;
23718;SDS011;43322;52.230;5.702;2024-02-23T06:33:52;7.03;;;2.80;;
23718;SDS011;43322;52.230;5.702;2024-02-23T06:36:18;6.47;;;2.50;;
23718;SDS011;43322;52.230;5.702;2024-02-23T06:38:45;5.07;;;2.30;;
23718;SDS011;43322;52.230;5.702;2024-02-23T06:41:12;6.28;;;2.70;;
23718;SDS011;43322;52.230;5.702;2024-02-23T06:43:39;3.80;;;2.55;;
23718;SDS011;43322;52.230;5.702;2024-02-23T06:46:06;13.45;;;2.95;;
23718;SDS011;43322;52.230;5.702;2024-02-23T06:48:33;6.68;;;2.67;;
23718;SDS011;43322;52.230;5.702;2024-02-23T06:51:02;9.65;;;2.63;;
23718;SDS011;43322;52.230;5.702;2024-02-23T06:53:29;9.00;;;2.55;;
23718;SDS011;43322;52.230;5.702;2024-02-23T06:55:57;8.05;;;2.45;;
23718;SDS011;43322;52.230;5.702;2024-02-23T06:58:25;6.05;;;2.08;;
23718;SDS011;43322;52.230;5.702;2024-02-23T07:00:52;5.57;;;1.88;;
23718;SDS011;43322;52.230;5.702;2024-02-23T07:03:19;3.85;;;1.80;;
23718;SDS011;43322;52.230;5.702;2024-02-23T07:05:46;4.70;;;2.22;;
23718;SDS011;43322;52.230;5.702;2024-02-23T07:08:16;4.70;;;2.30;;
23718;SDS011;43322;52.230;5.702;2024-02-23T07:10:43;8.15;;;2.20;;
23718;SDS011;43322;52.230;5.702;2024-02-23T07:13:10;4.78;;;2.63;;
23718;SDS011;43322;52.230;5.702;2024-02-23T07:15:37;8.73;;;2.30;;
23718;SDS011;43322;52.230;5.702;2024-02-23T07:18:04;8.43;;;2.95;;
23718;SDS011;43322;52.230;5.702;2024-02-23T07:20:33;9.27;;;2.75;;
23718;SDS011;43322;52.230;5.702;2024-02-23T07:23:01;3.72;;;2.45;;
23718;SDS011;43322;52.230;5.702;2024-02-23T07:25:29;5.63;;;2.53;;
23718;SDS011;43322;52.230;5.702;2024-02-23T07:27:56;7.75;;;2.58;;
23718;SDS011;43322;52.230;5.702;2024-02-23T07:30:23;6.80;;;2.97;;
23718;SDS011;43322;52.230;5.702;2024-02-23T07:32:50;7.63;;;3.15;;
23718;SDS011;43322;52.230;5.702;2024-02-23T07:35:17;6.38;;;3.00;;
23718;SDS011;43322;52.230;5.702;2024-02-23T07:37:43;12.10;;;3.03;;
23718;SDS011;43322;52.230;5.702;2024-02-23T07:40:11;4.45;;;2.42;;
23718;SDS011;43322;52.230;5.702;2024-02-23T07:42:40;6.63;;;2.33;;
23718;SDS011;43322;52.230;5.702;2024-02-23T07:45:07;3.17;;;2.58;;
23718;SDS011;43322;52.230;5.702;2024-02-23T07:47:34;5.97;;;2.42;;
23718;SDS011;43322;52.230;5.702;2024-02-23T07:50:01;9.52;;;3.15;;
23718;SDS011;43322;52.230;5.702;2024-02-23T07:52:28;9.80;;;2.75;;
23718;SDS011;43322;52.230;5.702;2024-02-23T07:54:55;9.88;;;2.58;;
23718;SDS011;43322;52.230;5.702;2024-02-23T07:57:22;6.75;;;2.38;;
23718;SDS011;43322;52.230;5.702;2024-02-23T07:59:51;3.92;;;2.00;;
23718;SDS011;43322;52.230;5.702;2024-02-23T08:02:18;5.63;;;2.50;;
23718;SDS011;43322;52.230;5.702;2024-02-23T08:04:44;5.25;;;2.35;;
23718;SDS011;43322;52.230;5.702;2024-02-23T08:07:12;3.42;;;1.65;;
23718;SDS011;43322;52.230;5.702;2024-02-23T08:09:39;3.60;;;1.70;;
23718;SDS011;43322;52.230;5.702;2024-02-23T08:12:06;4.82;;;1.83;;
23718;SDS011;43322;52.230;5.702;2024-02-23T08:14:34;8.20;;;1.95;;
23718;SDS011;43322;52.230;5.702;2024-02-23T08:17:02;5.25;;;1.40;;
23718;SDS011;43322;52.230;5.702;2024-02-23T08:19:29;4.30;;;1.88;;
23718;SDS011;43322;52.230;5.702;2024-02-23T08:21:56;5.25;;;1.75;;
23718;SDS011;43322;52.230;5.702;2024-02-23T08:24:22;4.90;;;1.50;;
23718;SDS011;43322;52.230;5.702;2024-02-23T08:26:51;6.97;;;2.58;;
23718;SDS011;43322;52.230;5.702;2024-02-23T08:29:18;2.55;;;1.25;;
23718;SDS011;43322;52.230;5.702;2024-02-23T08:31:45;11.07;;;1.88;;
23718;SDS011;43322;52.230;5.702;2024-02-23T08:34:13;4.18;;;1.48;;
23718;SDS011;43322;52.230;5.702;2024-02-23T08:36:42;4.45;;;1.42;;
23718;SDS011;43322;52.230;5.702;2024-02-23T08:39:09;4.50;;;1.70;;
23718;SDS011;43322;52.230;5.702;2024-02-23T08:41:36;6.20;;;2.13;;
23718;SDS011;43322;52.230;5.702;2024-02-23T08:44:03;6.50;;;1.77;;
23718;SDS011;43322;52.230;5.702;2024-02-23T08:46:30;6.18;;;1.35;;
23718;SDS011;43322;52.230;5.702;2024-02-23T08:48:57;5.50;;;1.35;;
23718;SDS011;43322;52.230;5.702;2024-02-23T08:51:25;5.43;;;1.63;;
23718;SDS011;43322;52.230;5.702;2024-02-23T08:53:52;3.97;;;1.70;;
23718;SDS011;43322;52.230;5.702;2024-02-23T08:56:20;5.47;;;1.70;;
23718;SDS011;43322;52.230;5.702;2024-02-23T08:58:47;6.25;;;1.73;;
23718;SDS011;43322;52.230;5.702;2024-02-23T09:01:14;7.60;;;2.42;;
23718;SDS011;43322;52.230;5.702;2024-02-23T09:03:40;4.07;;;1.88;;
23718;SDS011;43322;52.230;5.702;2024-02-23T09:06:07;7.05;;;1.95;;
23718;SDS011;43322;52.230;5.702;2024-02-23T09:08:36;6.53;;;1.85;;
23718;SDS011;43322;52.230;5.702;2024-02-23T09:11:03;5.80;;;1.45;;
23718;SDS011;43322;52.230;5.702;2024-02-23T09:13:30;5.32;;;2.00;;
23718;SDS011;43322;52.230;5.702;2024-02-23T09:15:56;7.70;;;2.10;;
23718;SDS011;43322;52.230;5.702;2024-02-23T09:18:23;4.30;;;1.67;;
23718;SDS011;43322;52.230;5.702;2024-02-23T09:20:50;6.82;;;1.83;;
23718;SDS011;43322;52.230;5.702;2024-02-23T09:23:17;5.82;;;1.60;;
23718;SDS011;43322;52.230;5.702;2024-02-23T09:25:45;7.45;;;1.88;;
23718;SDS011;43322;52.230;5.702;2024-02-23T09:28:12;5.47;;;1.50;;
23718;SDS011;43322;52.230;5.702;2024-02-23T09:30:39;5.90;;;1.85;;
23718;SDS011;43322;52.230;5.702;2024-02-23T09:33:08;3.10;;;1.73;;
23718;SDS011;43322;52.230;5.702;2024-02-23T09:35:35;9.27;;;2.00;;
23718;SDS011;43322;52.230;5.702;2024-02-23T09:38:02;5.22;;;1.77;;
23718;SDS011;43322;52.230;5.702;2024-02-23T09:40:29;6.75;;;1.85;;
23718;SDS011;43322;52.230;5.702;2024-02-23T09:42:58;6.60;;;2.00;;
23718;SDS011;43322;52.230;5.702;2024-02-23T09:45:25;5.95;;;1.90;;
23718;SDS011;43322;52.230;5.702;2024-02-23T09:47:53;8.45;;;2.55;;
23718;SDS011;43322;52.230;5.702;2024-02-23T09:50:21;6.15;;;1.88;;
23718;SDS011;43322;52.230;5.702;2024-02-23T09:52:49;6.50;;;1.70;;
23718;SDS011;43322;52.230;5.702;2024-02-23T09:55:16;5.80;;;1.55;;
23718;SDS011;43322;52.230;5.702;2024-02-23T09:57:43;2.85;;;1.50;;
23718;SDS011;43322;52.230;5.702;2024-02-23T10:00:13;8.75;;;1.70;;
23718;SDS011;43322;52.230;5.702;2024-02-23T10:02:42;5.80;;;1.33;;
23718;SDS011;43322;52.230;5.702;2024-02-23T10:05:10;4.90;;;1.98;;
23718;SDS011;43322;52.230;5.702;2024-02-23T10:07:37;3.85;;;2.00;;
23718;SDS011;43322;52.230;5.702;2024-02-23T10:10:06;8.00;;;2.00;;
23718;SDS011;43322;52.230;5.702;2024-02-23T10:12:33;8.25;;;1.88;;
23718;SDS011;43322;52.230;5.702;2024-02-23T10:15:00;9.20;;;2.20;;
23718;SDS011;43322;52.230;5.702;2024-02-23T10:17:30;7.07;;;1.80;;
23718;SDS011;43322;52.230;5.702;2024-02-23T10:19:57;6.10;;;1.85;;
23718;SDS011;43322;52.230;5.702;2024-02-23T10:22:29;4.63;;;1.90;;
23718;SDS011;43322;52.230;5.702;2024-02-23T10:24:56;5.50;;;1.70;;
23718;SDS011;43322;52.230;5.702;2024-02-23T10:27:23;5.03;;;1.98;;
23718;SDS011;43322;52.230;5.702;2024-02-23T10:29:51;3.95;;;1.52;;
23718;SDS011;43322;52.230;5.702;2024-02-23T10:32:19;4.70;;;1.95;;
23718;SDS011;43322;52.230;5.702;2024-02-23T10:34:48;4.95;;;1.60;;
23718;SDS011;43322;52.230;5.702;2024-02-23T10:37:16;5.18;;;1.90;;
23718;SDS011;43322;52.230;5.702;2024-02-23T10:39:43;1.65;;;1.38;;
23718;SDS011;43322;52.230;5.702;2024-02-23T10:42:12;2.67;;;1.88;;
23718;SDS011;43322;52.230;5.702;2024-02-23T10:44:42;4.45;;;1.67;;
23718;SDS011;43322;52.230;5.702;2024-02-23T10:47:09;2.20;;;1.50;;
23718;SDS011;43322;52.230;5.702;2024-02-23T10:49:38;7.07;;;1.85;;
23718;SDS011;43322;52.230;5.702;2024-02-23T10:52:06;5.43;;;1.98;;
23718;SDS011;43322;52.230;5.702;2024-02-23T10:54:37;5.63;;;2.05;;
23718;SDS011;43322;52.230;5.702;2024-02-23T10:57:05;6.22;;;2.00;;
23718;SDS011;43322;52.230;5.702;2024-02-23T10:59:33;4.88;;;2.03;;
23718;SDS011;43322;52.230;5.702;2024-02-23T11:01:59;4.13;;;2.00;;
23718;SDS011;43322;52.230;5.702;2024-02-23T11:04:27;5.80;;;1.80;;
23718;SDS011;43322;52.230;5.702;2024-02-23T11:06:55;6.72;;;2.00;;
23718;SDS011;43322;52.230;5.702;2024-02-23T11:09:24;5.50;;;2.05;;
23718;SDS011;43322;52.230;5.702;2024-02-23T11:11:53;4.35;;;1.77;;
23718;SDS011;43322;52.230;5.702;2024-02-23T11:14:29;4.70;;;1.90;;
23718;SDS011;43322;52.230;5.702;2024-02-23T11:16:57;3.63;;;1.80;;
23718;SDS011;43322;52.230;5.702;2024-02-23T11:19:31;3.50;;;1.63;;
23718;SDS011;43322;52.230;5.702;2024-02-23T11:21:59;6.85;;;2.20;;
23718;SDS011;43322;52.230;5.702;2024-02-23T11:24:29;9.07;;;2.42;;
23718;SDS011;43322;52.230;5.702;2024-02-23T11:26:57;6.15;;;1.90;;
23718;SDS011;43322;52.230;5.702;2024-02-23T11:29:28;5.45;;;2.22;;
23718;SDS011;43322;52.230;5.702;2024-02-23T11:31:57;5.05;;;2.10;;
23718;SDS011;43322;52.230;5.702;2024-02-23T11:34:29;5.57;;;1.70;;
23718;SDS011;43322;52.230;5.702;2024-02-23T11:36:56;4.20;;;1.88;;
23718;SDS011;43322;52.230;5.702;2024-02-23T11:39:25;5.47;;;1.98;;
23718;SDS011;43322;52.230;5.702;2024-02-23T11:41:54;2.72;;;1.90;;
23718;SDS011;43322;52.230;5.702;2024-02-23T11:44:22;4.70;;;2.08;;
23718;SDS011;43322;52.230;5.702;2024-02-23T11:46:49;7.60;;;2.40;;
23718;SDS011;43322;52.230;5.702;2024-02-23T11:49:16;6.82;;;2.38;;
23718;SDS011;43322;52.230;5.702;2024-02-23T11:51:43;4.38;;;1.95;;
23718;SDS011;43322;52.230;5.702;2024-02-23T11:54:10;8.50;;;2.28;;
23718;SDS011;43322;52.230;5.702;2024-02-23T11:56:38;6.38;;;2.17;;
23718;SDS011;43322;52.230;5.702;2024-02-23T11:59:07;5.80;;;2.05;;
23718;SDS011;43322;52.230;5.702;2024-02-23T12:01:35;2.47;;;1.80;;
23718;SDS011;43322;52.230;5.702;2024-02-23T12:04:01;7.18;;;2.67;;
23718;SDS011;43322;52.230;5.702;2024-02-23T12:06:29;3.63;;;1.95;;
23718;SDS011;43322;52.230;5.702;2024-02-23T12:08:57;3.35;;;1.95;;
23718;SDS011;43322;52.230;5.702;2024-02-23T12:11:24;3.85;;;1.77;;
23718;SDS011;43322;52.230;5.702;2024-02-23T12:13:52;4.90;;;1.92;;
23718;SDS011;43322;52.230;5.702;2024-02-23T12:16:21;5.65;;;2.45;;
23718;SDS011;43322;52.230;5.702;2024-02-23T12:18:52;5.53;;;2.30;;
23718;SDS011;43322;52.230;5.702;2024-02-23T12:21:20;3.92;;;1.90;;
23718;SDS011;43322;52.230;5.702;2024-02-23T12:23:49;5.50;;;2.30;;
23718;SDS011;43322;52.230;5.702;2024-02-23T12:26:16;9.38;;;2.42;;
23718;SDS011;43322;52.230;5.702;2024-02-23T12:28:44;4.70;;;2.13;;
23718;SDS011;43322;52.230;5.702;2024-02-23T12:31:11;2.97;;;1.60;;
23718;SDS011;43322;52.230;5.702;2024-02-23T12:33:40;5.25;;;2.13;;
23718;SDS011;43322;52.230;5.702;2024-02-23T12:36:12;6.25;;;2.47;;
23718;SDS011;43322;52.230;5.702;2024-02-23T12:38:39;6.40;;;2.10;;
23718;SDS011;43322;52.230;5.702;2024-02-23T12:41:06;3.63;;;1.73;;
23718;SDS011;43322;52.230;5.702;2024-02-23T12:43:33;3.17;;;2.20;;
23718;SDS011;43322;52.230;5.702;2024-02-23T12:46:00;5.82;;;2.33;;
23718;SDS011;43322;52.230;5.702;2024-02-23T12:48:28;3.70;;;2.13;;
23718;SDS011;43322;52.230;5.702;2024-02-23T12:50:56;3.15;;;1.77;;
23718;SDS011;43322;52.230;5.702;2024-02-23T12:53:33;5.57;;;2.20;;
23718;SDS011;43322;52.230;5.702;2024-02-23T12:56:01;3.38;;;1.92;;
23718;SDS011;43322;52.230;5.702;2024-02-23T12:58:28;4.85;;;2.20;;
23718;SDS011;43322;52.230;5.702;2024-02-23T13:00:55;4.70;;;2.47;;
23718;SDS011;43322;52.230;5.702;2024-02-23T13:03:23;5.43;;;2.40;;
23718;SDS011;43322;52.230;5.702;2024-02-23T13:05:51;3.92;;;2.20;;
23718;SDS011;43322;52.230;5.702;2024-02-23T13:08:20;3.47;;;2.30;;
23718;SDS011;43322;52.230;5.702;2024-02-23T13:10:47;8.07;;;2.30;;
23718;SDS011;43322;52.230;5.702;2024-02-23T13:13:14;4.75;;;2.10;;
23718;SDS011;43322;52.230;5.702;2024-02-23T13:15:41;5.20;;;2.25;;
23718;SDS011;43322;52.230;5.702;2024-02-23T13:18:08;5.15;;;2.20;;
23718;SDS011;43322;52.230;5.702;2024-02-23T13:20:35;4.18;;;2.17;;
23718;SDS011;43322;52.230;5.702;2024-02-23T13:23:02;4.45;;;1.85;;
23718;SDS011;43322;52.230;5.702;2024-02-23T13:25:30;4.47;;;2.08;;
23718;SDS011;43322;52.230;5.702;2024-02-23T13:27:57;8.18;;;1.90;;
23718;SDS011;43322;52.230;5.702;2024-02-23T13:30:24;3.70;;;1.70;;
23718;SDS011;43322;52.230;5.702;2024-02-23T13:32:51;3.53;;;2.20;;
23718;SDS011;43322;52.230;5.702;2024-02-23T13:35:18;4.88;;;1.95;;
23718;SDS011;43322;52.230;5.702;2024-02-23T13:37:46;6.40;;;2.50;;
23718;SDS011;43322;52.230;5.702;2024-02-23T13:40:13;4.35;;;2.08;;
23718;SDS011;43322;52.230;5.702;2024-02-23T13:42:41;7.85;;;2.05;;
23718;SDS011;43322;52.230;5.702;2024-02-23T13:45:11;3.83;;;1.95;;
23718;SDS011;43322;52.230;5.702;2024-02-23T13:47:39;2.00;;;1.80;;
23718;SDS011;43322;52.230;5.702;2024-02-23T13:50:07;2.63;;;1.85;;
23718;SDS011;43322;52.230;5.702;2024-02-23T13:52:35;1.83;;;1.70;;
23718;SDS011;43322;52.230;5.702;2024-02-23T13:55:02;6.88;;;2.25;;
23718;SDS011;43322;52.230;5.702;2024-02-23T13:57:29;5.22;;;2.28;;
23718;SDS011;43322;52.230;5.702;2024-02-23T13:59:57;6.57;;;2.42;;
23718;SDS011;43322;52.230;5.702;2024-02-23T14:02:24;4.63;;;1.63;;
23718;SDS011;43322;52.230;5.702;2024-02-23T14:04:54;2.90;;;1.70;;
23718;SDS011;43322;52.230;5.702;2024-02-23T14:07:27;2.30;;;1.80;;
23718;SDS011;43322;52.230;5.702;2024-02-23T14:09:54;3.15;;;1.80;;
23718;SDS011;43322;52.230;5.702;2024-02-23T14:12:21;5.07;;;1.83;;
23718;SDS011;43322;52.230;5.702;2024-02-23T14:14:47;3.67;;;1.83;;
23718;SDS011;43322;52.230;5.702;2024-02-23T14:17:16;3.50;;;1.55;;
23718;SDS011;43322;52.230;5.702;2024-02-23T14:19:42;5.35;;;2.10;;
23718;SDS011;43322;52.230;5.702;2024-02-23T14:22:09;3.10;;;1.85;;
23718;SDS011;43322;52.230;5.702;2024-02-23T14:24:36;2.72;;;1.90;;
23718;SDS011;43322;52.230;5.702;2024-02-23T14:27:03;4.15;;;1.90;;
23718;SDS011;43322;52.230;5.702;2024-02-23T14:29:30;7.53;;;2.13;;
23718;SDS011;43322;52.230;5.702;2024-02-23T14:31:58;3.78;;;2.00;;
23718;SDS011;43322;52.230;5.702;2024-02-23T14:34:27;6.65;;;2.05;;
23718;SDS011;43322;52.230;5.702;2024-02-23T14:36:55;4.30;;;2.08;;
23718;SDS011;43322;52.230;5.702;2024-02-23T14:39:22;5.57;;;2.00;;
23718;SDS011;43322;52.230;5.702;2024-02-23T14:41:49;6.47;;;2.20;;
23718;SDS011;43322;52.230;5.702;2024-02-23T14:44:16;5.40;;;1.90;;
23718;SDS011;43322;52.230;5.702;2024-02-23T14:46:43;3.72;;;1.98;;